Saturday, December 16, 2017, 9:18 PM EST
Back to Local

KFMH, Otis Air National Guard Base

Location: Mashpee, MA, United States Lat: 41.65
Local Time: 9:18 PM EST ( 2:18 GMT) Lon: -70.517
Time Zone: US/Eastern Elev: 131 ft

Show me the last for .
Show Coded

Time T Td Feel RH Dir Speed Gust Alt SLP Vis Weather Sky Remarks
2017-12-16 20:55 28 16 17 58 300° 10 16 30.11 - 10 CLR None
2017-12-16 20:35 28 18 15 63 300° 14 21 30.10 - 10 CLR None
2017-12-16 20:15 27 18 16 68 290° 12 - 30.09 - 10 CLR None
2017-12-16 19:55 28 18 20 63 300° 9 - 30.08 - 10 CLR None
2017-12-16 19:35 28 18 20 63 300° 9 - 30.07 - 10 SCT060 None
2017-12-16 19:15 28 18 18 63 300° 12 - 30.06 - 10 SCT050 OVC060 None
2017-12-16 18:55 28 18 20 63 310° 9 - 30.06 - 10 BKN050 OVC055 None
2017-12-16 18:35 28 18 19 63 310° 10 - 30.05 - 10 BKN055 OVC070 None
2017-12-16 18:15 30 18 23 58 310° 7 - 30.03 - 10 BKN055 OVC065 None
2017-12-16 17:55 28 18 20 63 300° 9 - 30.02 - 10 BKN055 OVC065 None
2017-12-16 17:35 28 18 20 63 290° 8 - 30.01 - 10 FEW043 SCT050 OVC065 None
2017-12-16 17:15 28 18 21 63 290° 7 - 29.99 - 10 BKN070 BKN085 OVC100 None
2017-12-16 16:55 30 18 23 58 300° 7 - 29.98 - 10 SCT090 OVC100 None
2017-12-16 16:35 30 18 23 58 300° 8 - 29.97 - 10 OVC110 None
2017-12-16 16:15 28 18 21 63 300° 7 - 29.96 - 10 OVC100 None
2017-12-16 15:55 28 16 20 58 280° 8 - 29.95 - 10 SCT110 None
2017-12-16 15:35 30 16 20 54 270° 13 - 29.95 - 10 FEW095 None
2017-12-16 15:15 30 16 20 54 280° 14 - 29.94 - 10 BKN095 None
2017-12-16 14:55 30 16 17 54 280° 13 23 29.94 - 10 OVC095 None
2017-12-16 14:35 30 14 17 50 280° 16 23 29.93 - 10 OVC100 None
2017-12-16 14:15 30 14 18 50 260° 20 - 29.92 - 10 OVC100 None
2017-12-16 13:55 32 16 19 50 270° 16 24 29.91 - 10 BKN100 None
2017-12-16 13:35 32 14 18 46 280° 22 29 29.91 - 10 SCT110 None
2017-12-16 13:15 32 16 20 50 280° 18 - 29.91 - 10 BKN110 None
2017-12-16 12:55 32 16 20 50 270° 21 - 29.91 - 10 OVC110 None
2017-12-16 12:35 30 16 18 54 270° 17 - 29.92 - 10 BKN110 None
2017-12-16 12:15 30 16 15 54 280° 15 30 29.93 - 10 CLR None
2017-12-16 11:55 30 16 15 54 280° 18 30 29.93 - 10 CLR None
2017-12-16 11:35 30 18 15 58 260° 23 30 29.94 - 10 CLR None
2017-12-16 11:15 28 18 15 63 270° 21 - 29.94 - 10 CLR None
2017-12-16 10:55 28 16 13 58 280° 18 30 29.95 - 10 CLR None
2017-12-16 10:35 28 18 14 63 280° 16 23 29.96 - 10 CLR None
2017-12-16 10:15 28 18 14 63 270° 16 23 29.97 - 10 CLR None
2017-12-16 09:55 27 18 14 68 270° 17 - 29.97 - 10 CLR None
2017-12-16 09:35 27 18 15 68 270° 14 - 29.96 - 10 CLR None
2017-12-16 09:15 25 18 10 73 260° 15 21 29.95 - 10 CLR None
2017-12-16 08:55 25 18 10 73 280° 13 23 29.94 - 10 CLR None
2017-12-16 08:35 25 16 13 68 280° 14 - 29.94 - 10 CLR None
2017-12-16 08:15 23 18 8 79 280° 15 21 29.93 - 10 CLR None
2017-12-16 07:55 23 16 11 73 280° 14 - 29.92 - 10 CLR None
2017-12-16 07:35 21 16 9 79 280° 12 - 29.91 - 10 CLR None
2017-12-16 07:15 21 16 9 79 280° 12 - 29.91 - 10 CLR None
2017-12-16 06:55 21 16 6 79 280° 14 21 29.90 - 10 CLR None
2017-12-16 06:35 21 16 8 79 280° 15 - 29.89 - 10 CLR None
2017-12-16 06:15 19 16 7 85 280° 12 - 29.89 - 10 CLR None
2017-12-16 05:55 21 16 9 79 290° 13 - 29.88 - 10 CLR None
2017-12-16 05:35 21 16 8 79 290° 15 - 29.87 - 10 CLR None
2017-12-16 05:15 21 16 8 79 290° 15 - 29.86 - 10 CLR None
2017-12-16 04:55 21 16 6 79 280° 12 18 29.85 - 10 CLR None
2017-12-16 04:35 21 18 7 85 290° 17 - 29.85 - 10 BKN085 None
2017-12-16 04:15 21 18 9 85 280° 12 - 29.83 - 10 OVC085 None
2017-12-16 03:55 21 18 8 85 290° 15 - 29.83 - 10 FEW065 BKN085 None
2017-12-16 03:35 21 18 9 85 290° 12 - 29.82 - 10 OVC085 None
2017-12-16 03:15 23 18 9 79 290° 12 18 29.82 - 10 SCT080 OVC085 None
2017-12-16 02:55 23 19 12 85 280° 10 - 29.82 - 10 FEW017 SCT049 OVC085 None
2017-12-16 02:35 23 19 14 85 280° 8 - 29.82 - 10 BKN047 OVC085 None
2017-12-16 02:15 23 19 13 85 280° 9 - 29.82 - 10 FEW012 BKN042 OVC048 None
2017-12-16 01:55 23 21 15 92 300° 7 - 29.81 - 10 FEW012 SCT017 OVC040 None
2017-12-16 01:35 23 21 15 92 300° 7 - 29.80 - 10 BKN023 OVC039 None
2017-12-16 01:15 23 21 14 92 290° 8 - 29.80 - 10 OVC023 None
2017-12-16 00:55 23 21 12 92 300° 10 - 29.79 - 8 -SN SCT025 BKN033 OVC038 None
2017-12-16 00:35 23 21 15 92 310° 7 - 29.79 - 4 -SN FEW020 SCT027 OVC033 None
2017-12-16 00:15 23 21 13 92 310° 9 - 29.80 - 3 -SN SCT003 BKN019 OVC026 None
2017-12-15 23:55 23 21 14 92 320° 8 - 29.80 - 2 -SN SCT003 BKN014 OVC022 None
2017-12-15 23:35 25 23 18 92 310° 6 - 29.81 - 2 -SN SCT004 BKN010 OVC021 None
2017-12-15 23:15 25 23 17 92 330° 7 - 29.81 - 3 -SN BKN004 BKN009 OVC022 None
2017-12-15 22:55 25 23 15 92 330° 9 - 29.82 - 1 -SN OVC003 None
2017-12-15 22:35 25 23 16 92 320° 8 - 29.82 - 1 -SN BKN003 OVC015 None
2017-12-15 22:15 25 23 19 92 340° 5 - 29.82 - 2 -SN FEW004 BKN015 BKN021 None
2017-12-15 21:55 27 25 20 92 340° 6 - 29.83 - 5 -SN FEW004 BKN018 OVC022 None
2017-12-15 21:35 27 25 21 92 10° 5 - 29.83 - 5 -SN OVC022 None

Support USWX by starting your Amazon purchase here.